sensor_id;sensor_type;location;lat;lon;timestamp;P1;durP1;ratioP1;P2;durP2;ratioP2
24995;SDS011;13016;52.162;21.034;2023-12-29T00:02:33;13.30;;;6.20;;
24995;SDS011;13016;52.162;21.034;2023-12-29T00:08:33;10.80;;;6.40;;
24995;SDS011;13016;52.162;21.034;2023-12-29T00:14:36;11.00;;;6.10;;
24995;SDS011;13016;52.162;21.034;2023-12-29T00:20:37;11.80;;;5.90;;
24995;SDS011;13016;52.162;21.034;2023-12-29T00:26:37;10.00;;;6.00;;
24995;SDS011;13016;52.162;21.034;2023-12-29T00:32:37;14.00;;;6.90;;
24995;SDS011;13016;52.162;21.034;2023-12-29T00:38:38;11.80;;;6.90;;
24995;SDS011;13016;52.162;21.034;2023-12-29T00:44:38;12.70;;;7.60;;
24995;SDS011;13016;52.162;21.034;2023-12-29T00:50:38;12.20;;;6.90;;
24995;SDS011;13016;52.162;21.034;2023-12-29T00:56:39;13.00;;;7.30;;
24995;SDS011;13016;52.162;21.034;2023-12-29T01:02:39;15.80;;;8.30;;
24995;SDS011;13016;52.162;21.034;2023-12-29T01:08:40;13.60;;;7.20;;
24995;SDS011;13016;52.162;21.034;2023-12-29T01:14:48;15.60;;;8.00;;
24995;SDS011;13016;52.162;21.034;2023-12-29T01:20:49;12.60;;;8.00;;
24995;SDS011;13016;52.162;21.034;2023-12-29T01:26:49;16.00;;;8.00;;
24995;SDS011;13016;52.162;21.034;2023-12-29T01:32:49;16.20;;;8.70;;
24995;SDS011;13016;52.162;21.034;2023-12-29T01:38:50;14.60;;;8.00;;
24995;SDS011;13016;52.162;21.034;2023-12-29T01:44:50;15.00;;;8.20;;
24995;SDS011;13016;52.162;21.034;2023-12-29T01:50:50;15.10;;;8.70;;
24995;SDS011;13016;52.162;21.034;2023-12-29T01:56:52;14.10;;;8.50;;
24995;SDS011;13016;52.162;21.034;2023-12-29T02:03:00;16.60;;;9.10;;
24995;SDS011;13016;52.162;21.034;2023-12-29T02:09:01;16.20;;;9.20;;
24995;SDS011;13016;52.162;21.034;2023-12-29T02:15:03;16.20;;;9.30;;
24995;SDS011;13016;52.162;21.034;2023-12-29T02:21:05;14.60;;;8.50;;
24995;SDS011;13016;52.162;21.034;2023-12-29T02:33:37;14.40;;;9.00;;
24995;SDS011;13016;52.162;21.034;2023-12-29T02:39:40;16.60;;;9.10;;
24995;SDS011;13016;52.162;21.034;2023-12-29T02:45:41;17.90;;;9.30;;
24995;SDS011;13016;52.162;21.034;2023-12-29T02:51:41;17.40;;;10.20;;
24995;SDS011;13016;52.162;21.034;2023-12-29T02:57:41;18.30;;;10.60;;
24995;SDS011;13016;52.162;21.034;2023-12-29T03:03:42;21.20;;;11.20;;
24995;SDS011;13016;52.162;21.034;2023-12-29T03:09:42;22.20;;;10.90;;
24995;SDS011;13016;52.162;21.034;2023-12-29T03:15:42;18.80;;;10.50;;
24995;SDS011;13016;52.162;21.034;2023-12-29T03:21:43;16.60;;;10.00;;
24995;SDS011;13016;52.162;21.034;2023-12-29T03:27:43;19.50;;;10.40;;
24995;SDS011;13016;52.162;21.034;2023-12-29T03:33:44;18.40;;;10.50;;
24995;SDS011;13016;52.162;21.034;2023-12-29T03:39:44;17.20;;;10.40;;
24995;SDS011;13016;52.162;21.034;2023-12-29T03:45:44;19.10;;;10.50;;
24995;SDS011;13016;52.162;21.034;2023-12-29T03:51:45;19.10;;;10.00;;
24995;SDS011;13016;52.162;21.034;2023-12-29T03:57:45;19.50;;;11.00;;
24995;SDS011;13016;52.162;21.034;2023-12-29T04:03:45;17.90;;;9.80;;
24995;SDS011;13016;52.162;21.034;2023-12-29T04:09:46;18.60;;;11.00;;
24995;SDS011;13016;52.162;21.034;2023-12-29T04:15:46;19.00;;;10.20;;
24995;SDS011;13016;52.162;21.034;2023-12-29T04:21:46;16.80;;;10.20;;
24995;SDS011;13016;52.162;21.034;2023-12-29T04:27:47;16.70;;;10.90;;
24995;SDS011;13016;52.162;21.034;2023-12-29T04:33:48;16.80;;;10.10;;
24995;SDS011;13016;52.162;21.034;2023-12-29T04:39:48;17.80;;;10.10;;
24995;SDS011;13016;52.162;21.034;2023-12-29T04:45:49;17.10;;;11.30;;
24995;SDS011;13016;52.162;21.034;2023-12-29T04:51:49;16.50;;;9.80;;
24995;SDS011;13016;52.162;21.034;2023-12-29T04:57:49;17.50;;;10.30;;
24995;SDS011;13016;52.162;21.034;2023-12-29T05:03:50;18.70;;;10.40;;
24995;SDS011;13016;52.162;21.034;2023-12-29T05:09:53;19.10;;;10.30;;
24995;SDS011;13016;52.162;21.034;2023-12-29T05:15:53;18.00;;;10.40;;
24995;SDS011;13016;52.162;21.034;2023-12-29T05:21:53;17.60;;;10.20;;
24995;SDS011;13016;52.162;21.034;2023-12-29T05:27:54;17.70;;;10.00;;
24995;SDS011;13016;52.162;21.034;2023-12-29T05:33:55;18.50;;;10.50;;
24995;SDS011;13016;52.162;21.034;2023-12-29T05:39:56;17.20;;;9.30;;
24995;SDS011;13016;52.162;21.034;2023-12-29T05:45:57;15.10;;;9.50;;
24995;SDS011;13016;52.162;21.034;2023-12-29T05:51:58;15.40;;;9.40;;
24995;SDS011;13016;52.162;21.034;2023-12-29T05:57:59;16.30;;;9.60;;
24995;SDS011;13016;52.162;21.034;2023-12-29T06:03:59;20.80;;;9.50;;
24995;SDS011;13016;52.162;21.034;2023-12-29T06:10:02;13.90;;;9.30;;
24995;SDS011;13016;52.162;21.034;2023-12-29T06:16:04;15.50;;;9.20;;
24995;SDS011;13016;52.162;21.034;2023-12-29T06:22:04;15.10;;;9.40;;
24995;SDS011;13016;52.162;21.034;2023-12-29T06:28:05;16.60;;;9.10;;
24995;SDS011;13016;52.162;21.034;2023-12-29T06:34:06;16.30;;;9.60;;
24995;SDS011;13016;52.162;21.034;2023-12-29T06:40:07;13.70;;;8.80;;
24995;SDS011;13016;52.162;21.034;2023-12-29T06:46:12;14.50;;;8.90;;
24995;SDS011;13016;52.162;21.034;2023-12-29T06:52:14;15.30;;;9.20;;
24995;SDS011;13016;52.162;21.034;2023-12-29T06:58:18;14.20;;;8.70;;
24995;SDS011;13016;52.162;21.034;2023-12-29T07:04:28;16.00;;;9.00;;
24995;SDS011;13016;52.162;21.034;2023-12-29T07:10:28;17.50;;;9.90;;
24995;SDS011;13016;52.162;21.034;2023-12-29T07:16:28;15.80;;;9.60;;
24995;SDS011;13016;52.162;21.034;2023-12-29T07:22:29;17.00;;;9.60;;
24995;SDS011;13016;52.162;21.034;2023-12-29T07:28:29;16.00;;;9.70;;
24995;SDS011;13016;52.162;21.034;2023-12-29T07:34:30;14.40;;;9.10;;
24995;SDS011;13016;52.162;21.034;2023-12-29T07:40:30;17.30;;;9.70;;
24995;SDS011;13016;52.162;21.034;2023-12-29T07:46:31;16.60;;;9.70;;
24995;SDS011;13016;52.162;21.034;2023-12-29T07:52:31;16.60;;;10.00;;
24995;SDS011;13016;52.162;21.034;2023-12-29T07:58:31;16.80;;;9.90;;
24995;SDS011;13016;52.162;21.034;2023-12-29T08:04:32;25.80;;;16.30;;
24995;SDS011;13016;52.162;21.034;2023-12-29T08:10:32;17.70;;;9.40;;
24995;SDS011;13016;52.162;21.034;2023-12-29T08:16:34;16.40;;;9.50;;
24995;SDS011;13016;52.162;21.034;2023-12-29T08:22:38;15.30;;;9.20;;
24995;SDS011;13016;52.162;21.034;2023-12-29T08:28:38;15.90;;;8.90;;
24995;SDS011;13016;52.162;21.034;2023-12-29T08:34:39;15.10;;;8.70;;
24995;SDS011;13016;52.162;21.034;2023-12-29T08:40:40;12.20;;;8.20;;
24995;SDS011;13016;52.162;21.034;2023-12-29T08:46:44;12.90;;;8.00;;
24995;SDS011;13016;52.162;21.034;2023-12-29T08:52:56;13.30;;;7.80;;
24995;SDS011;13016;52.162;21.034;2023-12-29T08:58:59;12.30;;;7.50;;
24995;SDS011;13016;52.162;21.034;2023-12-29T09:05:00;13.80;;;7.00;;
24995;SDS011;13016;52.162;21.034;2023-12-29T09:11:01;12.10;;;7.80;;
24995;SDS011;13016;52.162;21.034;2023-12-29T09:17:13;10.10;;;7.20;;
24995;SDS011;13016;52.162;21.034;2023-12-29T09:23:13;11.50;;;6.90;;
24995;SDS011;13016;52.162;21.034;2023-12-29T09:29:14;12.60;;;7.40;;
24995;SDS011;13016;52.162;21.034;2023-12-29T09:35:14;11.90;;;6.80;;
24995;SDS011;13016;52.162;21.034;2023-12-29T09:41:18;12.10;;;7.10;;
24995;SDS011;13016;52.162;21.034;2023-12-29T09:47:22;11.30;;;6.90;;
24995;SDS011;13016;52.162;21.034;2023-12-29T09:53:23;11.80;;;6.90;;
24995;SDS011;13016;52.162;21.034;2023-12-29T09:59:27;9.70;;;5.80;;
24995;SDS011;13016;52.162;21.034;2023-12-29T10:05:29;14.00;;;6.10;;
24995;SDS011;13016;52.162;21.034;2023-12-29T10:11:34;10.80;;;6.00;;
24995;SDS011;13016;52.162;21.034;2023-12-29T10:17:43;8.80;;;5.40;;
24995;SDS011;13016;52.162;21.034;2023-12-29T10:30:10;5.70;;;3.50;;
24995;SDS011;13016;52.162;21.034;2023-12-29T10:36:50;5.10;;;3.60;;
24995;SDS011;13016;52.162;21.034;2023-12-29T10:43:30;5.80;;;3.40;;
24995;SDS011;13016;52.162;21.034;2023-12-29T10:49:42;4.40;;;3.30;;
24995;SDS011;13016;52.162;21.034;2023-12-29T10:56:22;6.30;;;3.90;;
24995;SDS011;13016;52.162;21.034;2023-12-29T11:02:53;6.20;;;3.80;;
24995;SDS011;13016;52.162;21.034;2023-12-29T11:09:09;5.90;;;3.50;;
24995;SDS011;13016;52.162;21.034;2023-12-29T11:15:23;4.60;;;3.30;;
24995;SDS011;13016;52.162;21.034;2023-12-29T11:21:31;5.20;;;3.70;;
24995;SDS011;13016;52.162;21.034;2023-12-29T11:27:52;6.30;;;3.40;;
24995;SDS011;13016;52.162;21.034;2023-12-29T11:34:19;5.20;;;3.20;;
24995;SDS011;13016;52.162;21.034;2023-12-29T11:47:35;5.90;;;3.10;;
24995;SDS011;13016;52.162;21.034;2023-12-29T11:53:49;4.70;;;3.00;;
24995;SDS011;13016;52.162;21.034;2023-12-29T11:59:58;5.70;;;3.20;;
24995;SDS011;13016;52.162;21.034;2023-12-29T12:06:36;8.20;;;3.50;;
24995;SDS011;13016;52.162;21.034;2023-12-29T12:12:42;6.50;;;3.40;;
24995;SDS011;13016;52.162;21.034;2023-12-29T12:18:50;5.00;;;3.30;;
24995;SDS011;13016;52.162;21.034;2023-12-29T12:25:11;5.00;;;3.30;;
24995;SDS011;13016;52.162;21.034;2023-12-29T12:37:32;7.10;;;3.30;;
24995;SDS011;13016;52.162;21.034;2023-12-29T12:43:32;6.50;;;3.20;;
24995;SDS011;13016;52.162;21.034;2023-12-29T12:49:34;4.90;;;3.30;;
24995;SDS011;13016;52.162;21.034;2023-12-29T12:55:35;5.90;;;3.60;;
24995;SDS011;13016;52.162;21.034;2023-12-29T13:01:36;6.90;;;4.10;;
24995;SDS011;13016;52.162;21.034;2023-12-29T13:07:46;5.80;;;3.60;;
24995;SDS011;13016;52.162;21.034;2023-12-29T13:13:46;7.20;;;4.50;;
24995;SDS011;13016;52.162;21.034;2023-12-29T13:19:53;5.50;;;3.60;;
24995;SDS011;13016;52.162;21.034;2023-12-29T13:25:57;5.70;;;3.60;;
24995;SDS011;13016;52.162;21.034;2023-12-29T13:32:17;7.00;;;3.70;;
24995;SDS011;13016;52.162;21.034;2023-12-29T13:38:25;6.90;;;3.90;;
24995;SDS011;13016;52.162;21.034;2023-12-29T13:44:33;6.20;;;3.90;;
24995;SDS011;13016;52.162;21.034;2023-12-29T13:50:48;7.20;;;3.70;;
24995;SDS011;13016;52.162;21.034;2023-12-29T13:57:31;6.40;;;4.00;;
24995;SDS011;13016;52.162;21.034;2023-12-29T14:03:58;6.60;;;3.80;;
24995;SDS011;13016;52.162;21.034;2023-12-29T14:09:59;6.90;;;4.00;;
24995;SDS011;13016;52.162;21.034;2023-12-29T14:29:03;5.40;;;3.40;;
24995;SDS011;13016;52.162;21.034;2023-12-29T14:35:07;7.60;;;4.40;;
24995;SDS011;13016;52.162;21.034;2023-12-29T14:41:08;6.50;;;3.90;;
24995;SDS011;13016;52.162;21.034;2023-12-29T14:47:08;6.60;;;4.20;;
24995;SDS011;13016;52.162;21.034;2023-12-29T14:53:09;6.90;;;3.80;;
24995;SDS011;13016;52.162;21.034;2023-12-29T14:59:10;9.10;;;3.80;;
24995;SDS011;13016;52.162;21.034;2023-12-29T15:05:11;5.80;;;3.90;;
24995;SDS011;13016;52.162;21.034;2023-12-29T15:11:11;6.60;;;4.00;;
24995;SDS011;13016;52.162;21.034;2023-12-29T15:17:11;6.20;;;3.60;;
24995;SDS011;13016;52.162;21.034;2023-12-29T15:23:12;9.40;;;6.00;;
24995;SDS011;13016;52.162;21.034;2023-12-29T15:29:12;8.60;;;3.80;;
24995;SDS011;13016;52.162;21.034;2023-12-29T15:35:12;7.10;;;4.40;;
24995;SDS011;13016;52.162;21.034;2023-12-29T15:41:13;7.20;;;4.00;;
24995;SDS011;13016;52.162;21.034;2023-12-29T15:47:13;10.00;;;4.30;;
24995;SDS011;13016;52.162;21.034;2023-12-29T15:53:16;7.60;;;4.10;;
24995;SDS011;13016;52.162;21.034;2023-12-29T15:59:16;8.90;;;4.60;;
24995;SDS011;13016;52.162;21.034;2023-12-29T16:05:16;7.40;;;4.50;;
24995;SDS011;13016;52.162;21.034;2023-12-29T16:17:23;10.90;;;6.40;;
24995;SDS011;13016;52.162;21.034;2023-12-29T16:23:24;8.20;;;4.30;;
24995;SDS011;13016;52.162;21.034;2023-12-29T16:29:24;8.40;;;4.60;;
24995;SDS011;13016;52.162;21.034;2023-12-29T16:35:24;8.90;;;4.70;;
24995;SDS011;13016;52.162;21.034;2023-12-29T16:41:25;8.20;;;3.90;;
24995;SDS011;13016;52.162;21.034;2023-12-29T16:47:25;7.40;;;4.00;;
24995;SDS011;13016;52.162;21.034;2023-12-29T16:53:25;9.40;;;4.60;;
24995;SDS011;13016;52.162;21.034;2023-12-29T16:59:25;7.30;;;4.00;;
24995;SDS011;13016;52.162;21.034;2023-12-29T17:05:26;7.80;;;4.40;;
24995;SDS011;13016;52.162;21.034;2023-12-29T17:11:26;8.60;;;4.80;;
24995;SDS011;13016;52.162;21.034;2023-12-29T17:17:26;8.20;;;4.50;;
24995;SDS011;13016;52.162;21.034;2023-12-29T17:23:27;8.10;;;4.50;;
24995;SDS011;13016;52.162;21.034;2023-12-29T17:29:27;7.20;;;4.20;;
24995;SDS011;13016;52.162;21.034;2023-12-29T17:35:27;7.90;;;4.70;;
24995;SDS011;13016;52.162;21.034;2023-12-29T17:41:27;7.80;;;4.80;;
24995;SDS011;13016;52.162;21.034;2023-12-29T17:47:28;9.00;;;5.10;;
24995;SDS011;13016;52.162;21.034;2023-12-29T17:53:28;9.90;;;5.20;;
24995;SDS011;13016;52.162;21.034;2023-12-29T17:59:28;11.20;;;4.80;;
24995;SDS011;13016;52.162;21.034;2023-12-29T18:05:28;9.20;;;5.70;;
24995;SDS011;13016;52.162;21.034;2023-12-29T18:11:28;9.20;;;6.10;;
24995;SDS011;13016;52.162;21.034;2023-12-29T18:17:29;9.40;;;5.50;;
24995;SDS011;13016;52.162;21.034;2023-12-29T18:23:29;10.80;;;5.40;;
24995;SDS011;13016;52.162;21.034;2023-12-29T18:29:29;8.90;;;4.80;;
24995;SDS011;13016;52.162;21.034;2023-12-29T18:35:30;8.50;;;4.50;;
24995;SDS011;13016;52.162;21.034;2023-12-29T18:41:30;7.40;;;4.60;;
24995;SDS011;13016;52.162;21.034;2023-12-29T18:47:30;10.30;;;4.80;;
24995;SDS011;13016;52.162;21.034;2023-12-29T18:53:32;9.60;;;5.20;;
24995;SDS011;13016;52.162;21.034;2023-12-29T18:59:36;7.80;;;4.30;;
24995;SDS011;13016;52.162;21.034;2023-12-29T19:05:37;6.80;;;4.00;;
24995;SDS011;13016;52.162;21.034;2023-12-29T19:11:37;7.30;;;4.10;;
24995;SDS011;13016;52.162;21.034;2023-12-29T19:17:38;8.20;;;4.40;;
24995;SDS011;13016;52.162;21.034;2023-12-29T19:23:39;7.00;;;3.50;;
24995;SDS011;13016;52.162;21.034;2023-12-29T19:29:40;6.90;;;3.60;;
24995;SDS011;13016;52.162;21.034;2023-12-29T19:35:43;5.90;;;3.30;;
24995;SDS011;13016;52.162;21.034;2023-12-29T19:41:43;7.50;;;3.70;;
24995;SDS011;13016;52.162;21.034;2023-12-29T19:47:43;5.90;;;3.70;;
24995;SDS011;13016;52.162;21.034;2023-12-29T19:53:43;7.70;;;4.50;;
24995;SDS011;13016;52.162;21.034;2023-12-29T19:59:44;8.00;;;4.20;;
24995;SDS011;13016;52.162;21.034;2023-12-29T20:05:45;6.70;;;4.30;;
24995;SDS011;13016;52.162;21.034;2023-12-29T20:11:47;8.90;;;4.70;;
24995;SDS011;13016;52.162;21.034;2023-12-29T20:17:47;7.10;;;4.60;;
24995;SDS011;13016;52.162;21.034;2023-12-29T20:23:47;8.60;;;4.50;;
24995;SDS011;13016;52.162;21.034;2023-12-29T20:29:48;8.30;;;5.00;;
24995;SDS011;13016;52.162;21.034;2023-12-29T20:35:48;8.60;;;4.90;;
24995;SDS011;13016;52.162;21.034;2023-12-29T20:41:49;8.50;;;5.20;;
24995;SDS011;13016;52.162;21.034;2023-12-29T20:47:49;8.40;;;4.90;;
24995;SDS011;13016;52.162;21.034;2023-12-29T20:53:49;7.40;;;4.40;;
24995;SDS011;13016;52.162;21.034;2023-12-29T20:59:50;7.20;;;4.50;;
24995;SDS011;13016;52.162;21.034;2023-12-29T21:05:52;7.40;;;4.40;;
24995;SDS011;13016;52.162;21.034;2023-12-29T21:11:52;8.10;;;4.90;;
24995;SDS011;13016;52.162;21.034;2023-12-29T21:17:52;8.40;;;4.60;;
24995;SDS011;13016;52.162;21.034;2023-12-29T21:23:52;6.90;;;4.40;;
24995;SDS011;13016;52.162;21.034;2023-12-29T21:29:53;9.40;;;4.80;;
24995;SDS011;13016;52.162;21.034;2023-12-29T21:35:53;9.50;;;4.60;;
24995;SDS011;13016;52.162;21.034;2023-12-29T21:41:53;8.30;;;4.30;;
24995;SDS011;13016;52.162;21.034;2023-12-29T21:47:53;5.90;;;3.80;;
24995;SDS011;13016;52.162;21.034;2023-12-29T21:53:54;7.20;;;4.20;;
24995;SDS011;13016;52.162;21.034;2023-12-29T21:59:54;6.70;;;3.20;;
24995;SDS011;13016;52.162;21.034;2023-12-29T22:05:54;7.70;;;3.60;;
24995;SDS011;13016;52.162;21.034;2023-12-29T22:11:54;7.10;;;4.20;;
24995;SDS011;13016;52.162;21.034;2023-12-29T22:17:55;6.90;;;4.90;;
24995;SDS011;13016;52.162;21.034;2023-12-29T22:23:55;9.00;;;5.70;;
24995;SDS011;13016;52.162;21.034;2023-12-29T22:29:55;9.20;;;5.40;;
24995;SDS011;13016;52.162;21.034;2023-12-29T22:35:55;9.50;;;5.30;;
24995;SDS011;13016;52.162;21.034;2023-12-29T22:41:56;12.30;;;6.70;;
24995;SDS011;13016;52.162;21.034;2023-12-29T22:47:56;11.50;;;6.30;;
24995;SDS011;13016;52.162;21.034;2023-12-29T22:53:57;12.10;;;6.30;;
24995;SDS011;13016;52.162;21.034;2023-12-29T22:59:57;10.70;;;6.10;;
24995;SDS011;13016;52.162;21.034;2023-12-29T23:05:57;11.00;;;6.50;;
24995;SDS011;13016;52.162;21.034;2023-12-29T23:12:01;9.10;;;6.00;;
24995;SDS011;13016;52.162;21.034;2023-12-29T23:24:39;10.80;;;6.60;;
24995;SDS011;13016;52.162;21.034;2023-12-29T23:30:40;10.90;;;6.20;;
24995;SDS011;13016;52.162;21.034;2023-12-29T23:36:40;13.20;;;6.80;;
24995;SDS011;13016;52.162;21.034;2023-12-29T23:42:41;10.70;;;6.30;;
24995;SDS011;13016;52.162;21.034;2023-12-29T23:48:41;11.20;;;6.60;;
24995;SDS011;13016;52.162;21.034;2023-12-29T23:54:41;13.50;;;7.20;;
